Killen, Alabama
Current Conditions -  °F | °C
As of 2:53 PM on Thursday 23 Oct 2014 (Local Time) from KMSL Reporting Station
Clear Clear  
Wind Chill: 69°   Ceiling: Unl
Heat Index: 69°   Visibility: 10mi
Dew Point: 38°   Wind: 5mph
Humidity: 32%   Direction: NA
Pressure: 30.1"   Gusts: NA
Location:  34.86°N, 87.54°W
Report Text: KMSL 231953Z AUTO VRB04KT 10SM CLR 21/03 A3010 RMK AO2 SLP191 T02060033
Loading
Personal Weather Stations






























Interactive Weather Map New forecast layout! Learn more

10-Day Weather Forecast

Advertisements
Track Severe Weather on mobile